Megan T Miller — WCW9003 — position and weather

sailwx.info

Track history (hours):
 
Tides and Currents Weather Stations Pressure Air Temp Water Temp Dewpoint Dewpoint Depression Visibility Wind Speed Wind Dir Waves Ship Positions

Megan T Miller

Owner: MILLER MARINE SERVICES INC, PORT JEFFERSON, NY. More information available from US FCC via Universal Licensing System and Coast Guard Vessel Documentation Center.

Last reported at 2018-Apr-19 14:32 UTC. Time now 2018-Apr-20 16:45 UTC.
Position N 41°14' W 072°14'.

Length 18 m; draft 3 m.

MMSI: 338104509.

Date/timePositionNaut miles runAvg speedWind from/ knotsBaromVisibWave heightAir tempDewpointWater temp
2018-Apr-19 14:32N 41°14' W 072°14'0 7.4
2018-Apr-19 14:30N 41°14' W 072°14'4 7.4
2018-Apr-19 14:00N 41°14' W 072°19'4 7.1
2018-Apr-19 13:30N 41°13' W 072°24'4 8.0
2018-Apr-19 13:00N 41°13' W 072°29'5 9.2
2018-Apr-19 12:30N 41°13' W 072°35'5 9.6
2018-Apr-19 12:00N 41°12' W 072°42'  
2018-Apr-14 19:01N 41°12' W 072°46'0 9.4
2018-Apr-14 18:59N 41°12' W 072°45'4 9.3
2018-Apr-14 18:30N 41°12' W 072°39'4 8.9
2018-Apr-14 18:00N 41°13' W 072°33'4 8.5
2018-Apr-14 17:30N 41°13' W 072°28'8 8.6
2018-Apr-14 16:33N 41°15' W 072°17'2 0.1
2018-Apr-13 14:02N 41°14' W 072°15'2 9.6
2018-Apr-13 13:52N 41°14' W 072°17'3 9.1
2018-Apr-13 13:30N 41°14' W 072°21'  
Track history (hours):
 
Tides and Currents Weather Stations Pressure Air Temp Water Temp Dewpoint Dewpoint Depression Visibility Wind Speed Wind Dir Waves Ship Positions

Megan T Miller

Owner: MILLER MARINE SERVICES INC, PORT JEFFERSON, NY. More information available from US FCC via Universal Licensing System and Coast Guard Vessel Documentation Center.

Last reported at 2018-Apr-19 14:32 UTC. Time now 2018-Apr-20 16:45 UTC.
Position N 41°14' W 072°14'.

Length 18 m; draft 3 m.

MMSI: 338104509.

Date/timePositionNaut miles runAvg speedWind from/ knotsBaromVisibWave heightAir tempDewpointWater temp
2018-Apr-19 14:32N 41°14' W 072°14'0 7.4
2018-Apr-19 14:30N 41°14' W 072°14'4 7.4
2018-Apr-19 14:00N 41°14' W 072°19'4 7.1
2018-Apr-19 13:30N 41°13' W 072°24'4 8.0
2018-Apr-19 13:00N 41°13' W 072°29'5 9.2
2018-Apr-19 12:30N 41°13' W 072°35'5 9.6
2018-Apr-19 12:00N 41°12' W 072°42'  
2018-Apr-14 19:01N 41°12' W 072°46'0 9.4
2018-Apr-14 18:59N 41°12' W 072°45'4 9.3
2018-Apr-14 18:30N 41°12' W 072°39'4 8.9
2018-Apr-14 18:00N 41°13' W 072°33'4 8.5
2018-Apr-14 17:30N 41°13' W 072°28'8 8.6
2018-Apr-14 16:33N 41°15' W 072°17'2 0.1
2018-Apr-13 14:02N 41°14' W 072°15'2 9.6
2018-Apr-13 13:52N 41°14' W 072°17'3 9.1
2018-Apr-13 13:30N 41°14' W 072°21'  

Dump ship's entire track history